sensor_id;sensor_type;location;lat;lon;timestamp;P1;durP1;ratioP1;P2;durP2;ratioP2
55913;SDS011;58179;48.776;9.124;2023-03-21T00:01:23;8.07;;;3.40;;
55913;SDS011;58179;48.776;9.124;2023-03-21T00:03:50;6.35;;;3.20;;
55913;SDS011;58179;48.776;9.124;2023-03-21T00:06:16;6.35;;;3.47;;
55913;SDS011;58179;48.776;9.124;2023-03-21T00:08:41;4.03;;;3.00;;
55913;SDS011;58179;48.776;9.124;2023-03-21T00:11:09;8.10;;;3.20;;
55913;SDS011;58179;48.776;9.124;2023-03-21T00:13:36;6.70;;;3.20;;
55913;SDS011;58179;48.776;9.124;2023-03-21T00:16:08;5.65;;;3.20;;
55913;SDS011;58179;48.776;9.124;2023-03-21T00:18:39;6.35;;;3.10;;
55913;SDS011;58179;48.776;9.124;2023-03-21T00:21:06;5.05;;;3.20;;
55913;SDS011;58179;48.776;9.124;2023-03-21T00:23:35;5.15;;;3.35;;
55913;SDS011;58179;48.776;9.124;2023-03-21T00:26:01;6.27;;;3.60;;
55913;SDS011;58179;48.776;9.124;2023-03-21T00:28:27;4.45;;;3.42;;
55913;SDS011;58179;48.776;9.124;2023-03-21T00:30:56;10.55;;;3.50;;
55913;SDS011;58179;48.776;9.124;2023-03-21T00:33:26;7.17;;;3.70;;
55913;SDS011;58179;48.776;9.124;2023-03-21T00:35:52;8.65;;;3.42;;
55913;SDS011;58179;48.776;9.124;2023-03-21T00:38:19;7.15;;;3.40;;
55913;SDS011;58179;48.776;9.124;2023-03-21T00:40:45;5.82;;;3.72;;
55913;SDS011;58179;48.776;9.124;2023-03-21T00:43:12;6.40;;;3.80;;
55913;SDS011;58179;48.776;9.124;2023-03-21T00:45:47;7.72;;;3.40;;
55913;SDS011;58179;48.776;9.124;2023-03-21T00:48:15;6.07;;;3.13;;
55913;SDS011;58179;48.776;9.124;2023-03-21T00:50:43;6.35;;;3.22;;
55913;SDS011;58179;48.776;9.124;2023-03-21T00:53:11;6.35;;;3.60;;
55913;SDS011;58179;48.776;9.124;2023-03-21T00:55:37;5.07;;;3.50;;
55913;SDS011;58179;48.776;9.124;2023-03-21T00:58:03;4.10;;;2.88;;
55913;SDS011;58179;48.776;9.124;2023-03-21T01:00:31;5.57;;;3.22;;
55913;SDS011;58179;48.776;9.124;2023-03-21T01:02:57;4.27;;;3.20;;
55913;SDS011;58179;48.776;9.124;2023-03-21T01:05:30;5.83;;;3.43;;
55913;SDS011;58179;48.776;9.124;2023-03-21T01:08:18;5.30;;;3.50;;
55913;SDS011;58179;48.776;9.124;2023-03-21T01:10:46;5.13;;;3.60;;
55913;SDS011;58179;48.776;9.124;2023-03-21T01:13:15;3.60;;;3.20;;
55913;SDS011;58179;48.776;9.124;2023-03-21T01:15:46;4.57;;;3.20;;
55913;SDS011;58179;48.776;9.124;2023-03-21T01:18:15;6.82;;;3.47;;
55913;SDS011;58179;48.776;9.124;2023-03-21T01:20:42;6.07;;;3.97;;
55913;SDS011;58179;48.776;9.124;2023-03-21T01:23:09;9.55;;;3.42;;
55913;SDS011;58179;48.776;9.124;2023-03-21T01:25:39;4.93;;;3.45;;
55913;SDS011;58179;48.776;9.124;2023-03-21T01:28:05;5.97;;;3.30;;
55913;SDS011;58179;48.776;9.124;2023-03-21T01:30:31;11.10;;;4.40;;
55913;SDS011;58179;48.776;9.124;2023-03-21T01:32:58;4.90;;;3.47;;
55913;SDS011;58179;48.776;9.124;2023-03-21T01:35:24;5.38;;;3.33;;
55913;SDS011;58179;48.776;9.124;2023-03-21T01:37:50;6.80;;;3.55;;
55913;SDS011;58179;48.776;9.124;2023-03-21T01:40:17;7.17;;;3.40;;
55913;SDS011;58179;48.776;9.124;2023-03-21T01:42:47;7.35;;;3.58;;
55913;SDS011;58179;48.776;9.124;2023-03-21T01:48:45;8.90;;;3.70;;
55913;SDS011;58179;48.776;9.124;2023-03-21T01:51:14;8.38;;;3.78;;
55913;SDS011;58179;48.776;9.124;2023-03-21T01:53:41;7.60;;;3.92;;
55913;SDS011;58179;48.776;9.124;2023-03-21T01:56:07;7.47;;;3.87;;
55913;SDS011;58179;48.776;9.124;2023-03-21T01:58:42;6.97;;;3.70;;
55913;SDS011;58179;48.776;9.124;2023-03-21T02:01:09;5.25;;;3.80;;
55913;SDS011;58179;48.776;9.124;2023-03-21T02:03:37;4.45;;;3.63;;
55913;SDS011;58179;48.776;9.124;2023-03-21T02:06:14;8.43;;;4.10;;
55913;SDS011;58179;48.776;9.124;2023-03-21T02:08:50;6.50;;;3.78;;
55913;SDS011;58179;48.776;9.124;2023-03-21T02:11:17;6.50;;;3.88;;
55913;SDS011;58179;48.776;9.124;2023-03-21T02:13:44;10.23;;;4.40;;
55913;SDS011;58179;48.776;9.124;2023-03-21T02:16:11;6.73;;;4.00;;
55913;SDS011;58179;48.776;9.124;2023-03-21T02:18:46;5.73;;;4.23;;
55913;SDS011;58179;48.776;9.124;2023-03-21T02:21:29;7.07;;;4.50;;
55913;SDS011;58179;48.776;9.124;2023-03-21T02:24:47;7.75;;;4.90;;
55913;SDS011;58179;48.776;9.124;2023-03-21T02:27:41;9.48;;;4.90;;
55913;SDS011;58179;48.776;9.124;2023-03-21T02:30:32;10.20;;;4.93;;
55913;SDS011;58179;48.776;9.124;2023-03-21T02:33:27;8.75;;;5.22;;
55913;SDS011;58179;48.776;9.124;2023-03-21T02:36:47;8.13;;;5.25;;
55913;SDS011;58179;48.776;9.124;2023-03-21T02:39:28;8.30;;;5.00;;
55913;SDS011;58179;48.776;9.124;2023-03-21T02:42:04;11.30;;;5.90;;
55913;SDS011;58179;48.776;9.124;2023-03-21T02:44:39;8.57;;;5.72;;
55913;SDS011;58179;48.776;9.124;2023-03-21T02:47:10;7.53;;;5.32;;
55913;SDS011;58179;48.776;9.124;2023-03-21T02:49:43;10.63;;;5.22;;
55913;SDS011;58179;48.776;9.124;2023-03-21T02:52:17;7.25;;;5.05;;
55913;SDS011;58179;48.776;9.124;2023-03-21T02:54:46;12.63;;;5.22;;
55913;SDS011;58179;48.776;9.124;2023-03-21T02:57:14;9.50;;;5.07;;
55913;SDS011;58179;48.776;9.124;2023-03-21T02:59:43;7.22;;;5.00;;
55913;SDS011;58179;48.776;9.124;2023-03-21T03:02:12;12.90;;;5.68;;
55913;SDS011;58179;48.776;9.124;2023-03-21T03:04:41;9.85;;;5.30;;
55913;SDS011;58179;48.776;9.124;2023-03-21T03:10:17;7.60;;;5.10;;
55913;SDS011;58179;48.776;9.124;2023-03-21T03:13:03;8.98;;;4.95;;
55913;SDS011;58179;48.776;9.124;2023-03-21T03:15:46;8.57;;;5.45;;
55913;SDS011;58179;48.776;9.124;2023-03-21T03:18:23;7.20;;;4.75;;
55913;SDS011;58179;48.776;9.124;2023-03-21T03:21:02;9.15;;;5.13;;
55913;SDS011;58179;48.776;9.124;2023-03-21T03:23:36;7.78;;;5.18;;
55913;SDS011;58179;48.776;9.124;2023-03-21T03:26:10;7.05;;;5.40;;
55913;SDS011;58179;48.776;9.124;2023-03-21T03:28:42;8.80;;;5.28;;
55913;SDS011;58179;48.776;9.124;2023-03-21T03:31:13;9.15;;;5.82;;
55913;SDS011;58179;48.776;9.124;2023-03-21T03:33:46;8.15;;;5.40;;
55913;SDS011;58179;48.776;9.124;2023-03-21T03:36:16;11.65;;;5.90;;
55913;SDS011;58179;48.776;9.124;2023-03-21T03:38:47;7.95;;;5.85;;
55913;SDS011;58179;48.776;9.124;2023-03-21T03:41:16;10.02;;;7.40;;
55913;SDS011;58179;48.776;9.124;2023-03-21T03:43:48;9.50;;;6.55;;
55913;SDS011;58179;48.776;9.124;2023-03-21T03:46:21;8.15;;;5.88;;
55913;SDS011;58179;48.776;9.124;2023-03-21T03:48:53;8.63;;;6.15;;
55913;SDS011;58179;48.776;9.124;2023-03-21T03:51:23;7.97;;;5.65;;
55913;SDS011;58179;48.776;9.124;2023-03-21T03:53:56;11.55;;;6.10;;
55913;SDS011;58179;48.776;9.124;2023-03-21T03:56:26;6.85;;;5.18;;
55913;SDS011;58179;48.776;9.124;2023-03-21T03:58:53;7.05;;;4.90;;
55913;SDS011;58179;48.776;9.124;2023-03-21T04:01:20;8.07;;;5.13;;
55913;SDS011;58179;48.776;9.124;2023-03-21T04:03:46;10.80;;;5.30;;
55913;SDS011;58179;48.776;9.124;2023-03-21T04:06:13;8.63;;;4.80;;
55913;SDS011;58179;48.776;9.124;2023-03-21T04:08:40;7.72;;;4.90;;
55913;SDS011;58179;48.776;9.124;2023-03-21T04:11:08;9.35;;;5.55;;
55913;SDS011;58179;48.776;9.124;2023-03-21T04:13:35;7.20;;;5.22;;
55913;SDS011;58179;48.776;9.124;2023-03-21T04:16:01;6.15;;;4.95;;
55913;SDS011;58179;48.776;9.124;2023-03-21T04:18:27;6.80;;;5.60;;
55913;SDS011;58179;48.776;9.124;2023-03-21T04:20:53;7.15;;;5.20;;
55913;SDS011;58179;48.776;9.124;2023-03-21T04:23:19;8.80;;;5.20;;
55913;SDS011;58179;48.776;9.124;2023-03-21T04:25:45;8.10;;;5.35;;
55913;SDS011;58179;48.776;9.124;2023-03-21T04:28:12;8.90;;;5.55;;
55913;SDS011;58179;48.776;9.124;2023-03-21T04:30:38;9.23;;;6.00;;
55913;SDS011;58179;48.776;9.124;2023-03-21T04:33:05;9.80;;;5.72;;
55913;SDS011;58179;48.776;9.124;2023-03-21T04:35:31;9.63;;;5.30;;
55913;SDS011;58179;48.776;9.124;2023-03-21T04:37:58;9.18;;;5.43;;
55913;SDS011;58179;48.776;9.124;2023-03-21T04:40:24;9.27;;;5.28;;
55913;SDS011;58179;48.776;9.124;2023-03-21T04:42:50;9.05;;;5.78;;
55913;SDS011;58179;48.776;9.124;2023-03-21T04:45:17;9.23;;;5.68;;
55913;SDS011;58179;48.776;9.124;2023-03-21T04:47:43;12.02;;;6.45;;
55913;SDS011;58179;48.776;9.124;2023-03-21T04:50:10;9.23;;;5.80;;
55913;SDS011;58179;48.776;9.124;2023-03-21T04:52:37;9.40;;;5.87;;
55913;SDS011;58179;48.776;9.124;2023-03-21T04:55:03;12.43;;;6.75;;
55913;SDS011;58179;48.776;9.124;2023-03-21T04:57:34;11.10;;;6.63;;
55913;SDS011;58179;48.776;9.124;2023-03-21T05:00:00;8.80;;;6.68;;
55913;SDS011;58179;48.776;9.124;2023-03-21T05:02:30;8.57;;;5.90;;
55913;SDS011;58179;48.776;9.124;2023-03-21T05:04:56;11.57;;;7.05;;
55913;SDS011;58179;48.776;9.124;2023-03-21T05:07:22;8.60;;;6.10;;
55913;SDS011;58179;48.776;9.124;2023-03-21T05:09:50;10.52;;;6.63;;
55913;SDS011;58179;48.776;9.124;2023-03-21T05:12:16;8.73;;;6.22;;
55913;SDS011;58179;48.776;9.124;2023-03-21T05:14:43;13.60;;;7.55;;
55913;SDS011;58179;48.776;9.124;2023-03-21T05:17:09;11.48;;;6.95;;
55913;SDS011;58179;48.776;9.124;2023-03-21T05:19:40;10.18;;;6.95;;
55913;SDS011;58179;48.776;9.124;2023-03-21T05:22:08;10.27;;;6.78;;
55913;SDS011;58179;48.776;9.124;2023-03-21T05:24:36;11.88;;;7.20;;
55913;SDS011;58179;48.776;9.124;2023-03-21T05:27:05;13.10;;;7.63;;
55913;SDS011;58179;48.776;9.124;2023-03-21T05:29:32;12.63;;;7.32;;
55913;SDS011;58179;48.776;9.124;2023-03-21T05:31:58;10.00;;;7.00;;
55913;SDS011;58179;48.776;9.124;2023-03-21T05:34:25;11.43;;;7.53;;
55913;SDS011;58179;48.776;9.124;2023-03-21T05:36:53;15.15;;;7.82;;
55913;SDS011;58179;48.776;9.124;2023-03-21T05:39:19;10.48;;;6.88;;
55913;SDS011;58179;48.776;9.124;2023-03-21T05:41:46;17.55;;;8.68;;
55913;SDS011;58179;48.776;9.124;2023-03-21T05:44:12;12.20;;;7.38;;
55913;SDS011;58179;48.776;9.124;2023-03-21T05:46:38;12.67;;;8.03;;
55913;SDS011;58179;48.776;9.124;2023-03-21T05:49:04;10.53;;;7.60;;
55913;SDS011;58179;48.776;9.124;2023-03-21T05:51:30;12.27;;;7.07;;
55913;SDS011;58179;48.776;9.124;2023-03-21T05:53:57;12.57;;;8.43;;
55913;SDS011;58179;48.776;9.124;2023-03-21T05:56:23;13.10;;;8.50;;
55913;SDS011;58179;48.776;9.124;2023-03-21T05:58:49;13.27;;;8.32;;
55913;SDS011;58179;48.776;9.124;2023-03-21T06:01:15;9.32;;;6.97;;
55913;SDS011;58179;48.776;9.124;2023-03-21T06:03:41;12.18;;;7.10;;
55913;SDS011;58179;48.776;9.124;2023-03-21T06:06:07;12.93;;;7.50;;
55913;SDS011;58179;48.776;9.124;2023-03-21T06:08:34;10.05;;;6.63;;
55913;SDS011;58179;48.776;9.124;2023-03-21T06:11:01;11.23;;;6.20;;
55913;SDS011;58179;48.776;9.124;2023-03-21T06:13:27;12.65;;;6.13;;
55913;SDS011;58179;48.776;9.124;2023-03-21T06:15:55;9.68;;;5.72;;
55913;SDS011;58179;48.776;9.124;2023-03-21T06:18:21;8.73;;;5.47;;
55913;SDS011;58179;48.776;9.124;2023-03-21T06:20:47;9.07;;;5.60;;
55913;SDS011;58179;48.776;9.124;2023-03-21T06:23:12;8.13;;;5.70;;
55913;SDS011;58179;48.776;9.124;2023-03-21T06:25:39;8.43;;;5.68;;
55913;SDS011;58179;48.776;9.124;2023-03-21T06:28:07;7.82;;;5.15;;
55913;SDS011;58179;48.776;9.124;2023-03-21T06:30:32;6.90;;;5.45;;
55913;SDS011;58179;48.776;9.124;2023-03-21T06:32:58;7.07;;;5.45;;
55913;SDS011;58179;48.776;9.124;2023-03-21T06:35:24;7.97;;;5.47;;
55913;SDS011;58179;48.776;9.124;2023-03-21T06:37:50;8.77;;;5.55;;
55913;SDS011;58179;48.776;9.124;2023-03-21T06:40:16;8.50;;;5.60;;
55913;SDS011;58179;48.776;9.124;2023-03-21T06:42:42;6.63;;;4.95;;
55913;SDS011;58179;48.776;9.124;2023-03-21T06:45:10;9.03;;;5.67;;
55913;SDS011;58179;48.776;9.124;2023-03-21T06:47:36;8.38;;;5.30;;
55913;SDS011;58179;48.776;9.124;2023-03-21T06:50:02;10.45;;;6.30;;
55913;SDS011;58179;48.776;9.124;2023-03-21T06:52:31;10.38;;;5.32;;
55913;SDS011;58179;48.776;9.124;2023-03-21T06:54:56;7.97;;;5.30;;
55913;SDS011;58179;48.776;9.124;2023-03-21T06:57:22;8.10;;;5.55;;
55913;SDS011;58179;48.776;9.124;2023-03-21T06:59:48;9.50;;;5.50;;
55913;SDS011;58179;48.776;9.124;2023-03-21T07:02:15;8.40;;;5.05;;
55913;SDS011;58179;48.776;9.124;2023-03-21T07:04:41;7.10;;;4.68;;
55913;SDS011;58179;48.776;9.124;2023-03-21T07:07:07;10.73;;;4.97;;
55913;SDS011;58179;48.776;9.124;2023-03-21T07:09:34;6.78;;;5.18;;
55913;SDS011;58179;48.776;9.124;2023-03-21T07:11:59;6.30;;;4.45;;
55913;SDS011;58179;48.776;9.124;2023-03-21T07:14:25;7.93;;;4.23;;
55913;SDS011;58179;48.776;9.124;2023-03-21T07:16:51;7.60;;;4.38;;
55913;SDS011;58179;48.776;9.124;2023-03-21T07:19:18;5.13;;;4.10;;
55913;SDS011;58179;48.776;9.124;2023-03-21T07:21:44;5.67;;;3.90;;
55913;SDS011;58179;48.776;9.124;2023-03-21T07:24:10;7.47;;;3.85;;
55913;SDS011;58179;48.776;9.124;2023-03-21T07:26:36;5.70;;;3.92;;
55913;SDS011;58179;48.776;9.124;2023-03-21T07:29:02;7.13;;;4.03;;
55913;SDS011;58179;48.776;9.124;2023-03-21T07:31:28;5.65;;;3.95;;
55913;SDS011;58179;48.776;9.124;2023-03-21T07:33:54;7.22;;;4.05;;
55913;SDS011;58179;48.776;9.124;2023-03-21T07:36:22;7.28;;;3.85;;
55913;SDS011;58179;48.776;9.124;2023-03-21T07:38:47;6.18;;;3.90;;
55913;SDS011;58179;48.776;9.124;2023-03-21T07:41:13;5.68;;;4.07;;
55913;SDS011;58179;48.776;9.124;2023-03-21T07:43:39;5.10;;;3.50;;
55913;SDS011;58179;48.776;9.124;2023-03-21T07:46:05;5.60;;;3.47;;
55913;SDS011;58179;48.776;9.124;2023-03-21T07:48:31;5.85;;;3.38;;
55913;SDS011;58179;48.776;9.124;2023-03-21T07:50:57;5.57;;;3.95;;
55913;SDS011;58179;48.776;9.124;2023-03-21T07:53:25;5.90;;;3.53;;
55913;SDS011;58179;48.776;9.124;2023-03-21T07:55:51;5.30;;;3.47;;
55913;SDS011;58179;48.776;9.124;2023-03-21T07:58:20;5.03;;;3.25;;
55913;SDS011;58179;48.776;9.124;2023-03-21T08:00:46;5.82;;;4.10;;
55913;SDS011;58179;48.776;9.124;2023-03-21T08:03:12;6.05;;;3.55;;
55913;SDS011;58179;48.776;9.124;2023-03-21T08:05:38;4.28;;;3.17;;
55913;SDS011;58179;48.776;9.124;2023-03-21T08:08:05;6.10;;;3.45;;
55913;SDS011;58179;48.776;9.124;2023-03-21T08:10:33;5.35;;;3.28;;
55913;SDS011;58179;48.776;9.124;2023-03-21T08:13:00;4.35;;;3.13;;
55913;SDS011;58179;48.776;9.124;2023-03-21T08:15:26;4.28;;;3.25;;
55913;SDS011;58179;48.776;9.124;2023-03-21T08:17:52;6.20;;;3.13;;
55913;SDS011;58179;48.776;9.124;2023-03-21T08:20:18;5.43;;;3.35;;
55913;SDS011;58179;48.776;9.124;2023-03-21T08:22:47;5.77;;;3.53;;
55913;SDS011;58179;48.776;9.124;2023-03-21T08:25:14;5.18;;;3.40;;
55913;SDS011;58179;48.776;9.124;2023-03-21T08:27:43;4.75;;;3.03;;
55913;SDS011;58179;48.776;9.124;2023-03-21T08:30:11;5.88;;;3.28;;
55913;SDS011;58179;48.776;9.124;2023-03-21T08:32:40;4.80;;;3.10;;
55913;SDS011;58179;48.776;9.124;2023-03-21T08:35:08;3.85;;;2.90;;
55913;SDS011;58179;48.776;9.124;2023-03-21T08:37:36;5.40;;;3.07;;
55913;SDS011;58179;48.776;9.124;2023-03-21T08:40:03;4.68;;;3.42;;
55913;SDS011;58179;48.776;9.124;2023-03-21T08:42:33;5.90;;;3.22;;
55913;SDS011;58179;48.776;9.124;2023-03-21T08:45:00;4.78;;;3.03;;
55913;SDS011;58179;48.776;9.124;2023-03-21T08:47:27;4.45;;;2.60;;
55913;SDS011;58179;48.776;9.124;2023-03-21T08:49:53;4.80;;;2.28;;
55913;SDS011;58179;48.776;9.124;2023-03-21T08:52:19;6.80;;;2.92;;
55913;SDS011;58179;48.776;9.124;2023-03-21T08:54:45;5.95;;;2.65;;
55913;SDS011;58179;48.776;9.124;2023-03-21T08:57:12;5.78;;;2.22;;
55913;SDS011;58179;48.776;9.124;2023-03-21T08:59:39;3.88;;;2.25;;
55913;SDS011;58179;48.776;9.124;2023-03-21T09:02:06;4.95;;;2.28;;
55913;SDS011;58179;48.776;9.124;2023-03-21T09:04:32;2.85;;;2.35;;
55913;SDS011;58179;48.776;9.124;2023-03-21T09:06:58;4.65;;;2.72;;
55913;SDS011;58179;48.776;9.124;2023-03-21T09:09:27;4.32;;;2.47;;
55913;SDS011;58179;48.776;9.124;2023-03-21T09:11:53;5.50;;;2.30;;
55913;SDS011;58179;48.776;9.124;2023-03-21T09:14:19;2.83;;;2.10;;
55913;SDS011;58179;48.776;9.124;2023-03-21T09:16:45;2.33;;;1.95;;
55913;SDS011;58179;48.776;9.124;2023-03-21T09:19:12;3.43;;;2.07;;
55913;SDS011;58179;48.776;9.124;2023-03-21T09:21:38;3.83;;;2.15;;
55913;SDS011;58179;48.776;9.124;2023-03-21T09:24:05;3.67;;;1.73;;
55913;SDS011;58179;48.776;9.124;2023-03-21T09:26:32;4.32;;;1.83;;
55913;SDS011;58179;48.776;9.124;2023-03-21T09:28:58;3.05;;;1.90;;
55913;SDS011;58179;48.776;9.124;2023-03-21T09:31:25;5.43;;;2.10;;
55913;SDS011;58179;48.776;9.124;2023-03-21T09:33:52;2.70;;;1.90;;
55913;SDS011;58179;48.776;9.124;2023-03-21T09:36:21;3.13;;;1.87;;
55913;SDS011;58179;48.776;9.124;2023-03-21T09:38:50;3.13;;;1.80;;
55913;SDS011;58179;48.776;9.124;2023-03-21T09:41:20;3.33;;;2.13;;
55913;SDS011;58179;48.776;9.124;2023-03-21T09:44:06;3.05;;;1.90;;
55913;SDS011;58179;48.776;9.124;2023-03-21T09:46:49;2.58;;;2.10;;
55913;SDS011;58179;48.776;9.124;2023-03-21T09:49:21;3.13;;;2.17;;
55913;SDS011;58179;48.776;9.124;2023-03-21T09:51:57;3.15;;;1.98;;
55913;SDS011;58179;48.776;9.124;2023-03-21T09:54:28;3.50;;;1.90;;
55913;SDS011;58179;48.776;9.124;2023-03-21T09:57:00;1.70;;;1.50;;
55913;SDS011;58179;48.776;9.124;2023-03-21T09:59:33;3.05;;;1.50;;
55913;SDS011;58179;48.776;9.124;2023-03-21T10:02:05;1.53;;;1.30;;
55913;SDS011;58179;48.776;9.124;2023-03-21T10:04:57;2.03;;;1.40;;
55913;SDS011;58179;48.776;9.124;2023-03-21T10:07:25;2.72;;;1.90;;
55913;SDS011;58179;48.776;9.124;2023-03-21T10:09:54;2.83;;;1.63;;
55913;SDS011;58179;48.776;9.124;2023-03-21T10:12:22;7.18;;;1.90;;
55913;SDS011;58179;48.776;9.124;2023-03-21T10:14:50;2.90;;;1.30;;
55913;SDS011;58179;48.776;9.124;2023-03-21T10:17:24;3.00;;;1.08;;
55913;SDS011;58179;48.776;9.124;2023-03-21T10:19:59;1.75;;;1.23;;
55913;SDS011;58179;48.776;9.124;2023-03-21T10:22:39;2.95;;;1.38;;
55913;SDS011;58179;48.776;9.124;2023-03-21T10:25:06;3.25;;;1.30;;
55913;SDS011;58179;48.776;9.124;2023-03-21T10:27:38;2.90;;;1.17;;
55913;SDS011;58179;48.776;9.124;2023-03-21T10:30:05;2.70;;;1.30;;
55913;SDS011;58179;48.776;9.124;2023-03-21T10:32:43;1.65;;;1.23;;
55913;SDS011;58179;48.776;9.124;2023-03-21T10:35:11;1.88;;;1.38;;
55913;SDS011;58179;48.776;9.124;2023-03-21T10:37:39;2.13;;;1.30;;
55913;SDS011;58179;48.776;9.124;2023-03-21T10:40:06;2.95;;;1.30;;
55913;SDS011;58179;48.776;9.124;2023-03-21T10:42:39;2.40;;;1.30;;
55913;SDS011;58179;48.776;9.124;2023-03-21T10:45:07;2.75;;;1.20;;
55913;SDS011;58179;48.776;9.124;2023-03-21T10:47:40;1.50;;;1.10;;
55913;SDS011;58179;48.776;9.124;2023-03-21T10:50:07;5.65;;;1.80;;
55913;SDS011;58179;48.776;9.124;2023-03-21T10:52:41;4.17;;;1.13;;
55913;SDS011;58179;48.776;9.124;2023-03-21T10:55:17;2.58;;;1.13;;
55913;SDS011;58179;48.776;9.124;2023-03-21T10:57:52;3.90;;;1.40;;
55913;SDS011;58179;48.776;9.124;2023-03-21T11:00:23;1.77;;;1.27;;
55913;SDS011;58179;48.776;9.124;2023-03-21T11:02:53;2.15;;;1.23;;
55913;SDS011;58179;48.776;9.124;2023-03-21T11:05:22;2.53;;;1.30;;
55913;SDS011;58179;48.776;9.124;2023-03-21T11:08:02;2.40;;;1.20;;
55913;SDS011;58179;48.776;9.124;2023-03-21T11:10:31;2.03;;;1.17;;
55913;SDS011;58179;48.776;9.124;2023-03-21T11:13:01;1.92;;;1.20;;
55913;SDS011;58179;48.776;9.124;2023-03-21T11:15:32;3.40;;;1.45;;
55913;SDS011;58179;48.776;9.124;2023-03-21T11:18:13;3.15;;;1.40;;
55913;SDS011;58179;48.776;9.124;2023-03-21T11:20:43;2.95;;;1.42;;
55913;SDS011;58179;48.776;9.124;2023-03-21T11:23:17;2.95;;;1.50;;
55913;SDS011;58179;48.776;9.124;2023-03-21T11:25:43;2.23;;;1.40;;
55913;SDS011;58179;48.776;9.124;2023-03-21T11:28:14;2.55;;;1.30;;
55913;SDS011;58179;48.776;9.124;2023-03-21T11:30:53;3.65;;;1.48;;
55913;SDS011;58179;48.776;9.124;2023-03-21T11:33:21;2.10;;;1.40;;
55913;SDS011;58179;48.776;9.124;2023-03-21T11:35:58;3.03;;;1.50;;
55913;SDS011;58179;48.776;9.124;2023-03-21T11:38:32;2.17;;;1.50;;
55913;SDS011;58179;48.776;9.124;2023-03-21T11:41:02;3.85;;;2.00;;
55913;SDS011;58179;48.776;9.124;2023-03-21T11:43:30;2.92;;;1.65;;
55913;SDS011;58179;48.776;9.124;2023-03-21T11:46:00;4.47;;;1.70;;
55913;SDS011;58179;48.776;9.124;2023-03-21T11:48:32;1.90;;;1.40;;
55913;SDS011;58179;48.776;9.124;2023-03-21T11:51:03;2.33;;;1.50;;
55913;SDS011;58179;48.776;9.124;2023-03-21T11:53:50;2.97;;;1.65;;
55913;SDS011;58179;48.776;9.124;2023-03-21T11:56:27;2.75;;;1.63;;
55913;SDS011;58179;48.776;9.124;2023-03-21T11:59:17;3.50;;;1.67;;
55913;SDS011;58179;48.776;9.124;2023-03-21T12:01:59;3.25;;;1.60;;
55913;SDS011;58179;48.776;9.124;2023-03-21T12:05:15;4.63;;;1.67;;
55913;SDS011;58179;48.776;9.124;2023-03-21T12:07:49;2.17;;;1.40;;
55913;SDS011;58179;48.776;9.124;2023-03-21T12:10:26;2.65;;;1.45;;
55913;SDS011;58179;48.776;9.124;2023-03-21T12:13:00;1.92;;;1.50;;
55913;SDS011;58179;48.776;9.124;2023-03-21T12:15:47;1.70;;;1.30;;
55913;SDS011;58179;48.776;9.124;2023-03-21T12:18:27;2.80;;;1.60;;
55913;SDS011;58179;48.776;9.124;2023-03-21T12:21:22;3.15;;;1.50;;
55913;SDS011;58179;48.776;9.124;2023-03-21T12:24:00;1.65;;;1.20;;
55913;SDS011;58179;48.776;9.124;2023-03-21T12:26:36;2.03;;;1.30;;
55913;SDS011;58179;48.776;9.124;2023-03-21T12:29:17;2.17;;;1.60;;
55913;SDS011;58179;48.776;9.124;2023-03-21T12:32:03;3.35;;;1.63;;
55913;SDS011;58179;48.776;9.124;2023-03-21T12:34:47;2.55;;;1.73;;
55913;SDS011;58179;48.776;9.124;2023-03-21T12:37:36;2.50;;;1.42;;
55913;SDS011;58179;48.776;9.124;2023-03-21T12:40:16;2.50;;;1.77;;
55913;SDS011;58179;48.776;9.124;2023-03-21T12:43:06;2.45;;;1.40;;
55913;SDS011;58179;48.776;9.124;2023-03-21T12:45:57;4.10;;;1.30;;
55913;SDS011;58179;48.776;9.124;2023-03-21T12:48:31;2.55;;;1.60;;
55913;SDS011;58179;48.776;9.124;2023-03-21T12:51:06;1.60;;;1.30;;
55913;SDS011;58179;48.776;9.124;2023-03-21T12:53:47;1.85;;;1.40;;
55913;SDS011;58179;48.776;9.124;2023-03-21T12:56:21;3.50;;;1.40;;
55913;SDS011;58179;48.776;9.124;2023-03-21T12:58:55;3.05;;;1.30;;
55913;SDS011;58179;48.776;9.124;2023-03-21T13:01:27;2.97;;;1.10;;
55913;SDS011;58179;48.776;9.124;2023-03-21T13:04:01;1.53;;;1.10;;
55913;SDS011;58179;48.776;9.124;2023-03-21T13:06:57;1.60;;;1.10;;
55913;SDS011;58179;48.776;9.124;2023-03-21T13:09:28;2.65;;;1.25;;
55913;SDS011;58179;48.776;9.124;2023-03-21T13:12:00;2.15;;;1.20;;
55913;SDS011;58179;48.776;9.124;2023-03-21T13:14:42;1.40;;;0.90;;
55913;SDS011;58179;48.776;9.124;2023-03-21T13:17:21;1.80;;;1.20;;
55913;SDS011;58179;48.776;9.124;2023-03-21T13:19:55;1.55;;;1.20;;
55913;SDS011;58179;48.776;9.124;2023-03-21T13:22:30;2.13;;;1.13;;
55913;SDS011;58179;48.776;9.124;2023-03-21T13:24:57;2.58;;;1.33;;
55913;SDS011;58179;48.776;9.124;2023-03-21T13:27:29;2.47;;;1.43;;
55913;SDS011;58179;48.776;9.124;2023-03-21T13:30:00;4.40;;;1.65;;
55913;SDS011;58179;48.776;9.124;2023-03-21T13:32:33;1.85;;;1.25;;
55913;SDS011;58179;48.776;9.124;2023-03-21T13:35:12;1.73;;;1.20;;
55913;SDS011;58179;48.776;9.124;2023-03-21T13:37:42;2.78;;;1.70;;
55913;SDS011;58179;48.776;9.124;2023-03-21T13:40:20;2.33;;;1.58;;
55913;SDS011;58179;48.776;9.124;2023-03-21T13:42:50;2.20;;;1.50;;
55913;SDS011;58179;48.776;9.124;2023-03-21T13:45:24;1.50;;;1.23;;
55913;SDS011;58179;48.776;9.124;2023-03-21T13:47:55;1.67;;;1.30;;
55913;SDS011;58179;48.776;9.124;2023-03-21T13:50:23;1.60;;;1.25;;
55913;SDS011;58179;48.776;9.124;2023-03-21T13:53:10;1.92;;;1.38;;
55913;SDS011;58179;48.776;9.124;2023-03-21T13:55:59;1.25;;;1.15;;
55913;SDS011;58179;48.776;9.124;2023-03-21T13:58:52;3.13;;;1.45;;
55913;SDS011;58179;48.776;9.124;2023-03-21T14:01:36;1.65;;;1.02;;
55913;SDS011;58179;48.776;9.124;2023-03-21T14:04:09;2.20;;;1.50;;
55913;SDS011;58179;48.776;9.124;2023-03-21T14:06:41;2.28;;;1.27;;
55913;SDS011;58179;48.776;9.124;2023-03-21T14:09:14;1.90;;;1.50;;
55913;SDS011;58179;48.776;9.124;2023-03-21T14:11:51;2.60;;;1.27;;
55913;SDS011;58179;48.776;9.124;2023-03-21T14:14:19;1.90;;;1.25;;
55913;SDS011;58179;48.776;9.124;2023-03-21T14:16:48;1.25;;;1.10;;
55913;SDS011;58179;48.776;9.124;2023-03-21T14:19:17;3.28;;;1.48;;
55913;SDS011;58179;48.776;9.124;2023-03-21T14:21:47;1.88;;;1.30;;
55913;SDS011;58179;48.776;9.124;2023-03-21T14:24:16;2.05;;;1.40;;
55913;SDS011;58179;48.776;9.124;2023-03-21T14:26:43;2.88;;;1.50;;
55913;SDS011;58179;48.776;9.124;2023-03-21T14:29:13;2.45;;;1.35;;
55913;SDS011;58179;48.776;9.124;2023-03-21T14:31:45;1.98;;;1.55;;
55913;SDS011;58179;48.776;9.124;2023-03-21T14:34:13;1.30;;;1.20;;
55913;SDS011;58179;48.776;9.124;2023-03-21T14:36:41;2.00;;;1.48;;
55913;SDS011;58179;48.776;9.124;2023-03-21T14:39:11;1.92;;;1.40;;
55913;SDS011;58179;48.776;9.124;2023-03-21T14:41:44;2.55;;;1.50;;
55913;SDS011;58179;48.776;9.124;2023-03-21T14:44:21;2.28;;;1.45;;
55913;SDS011;58179;48.776;9.124;2023-03-21T14:46:50;2.50;;;1.40;;
55913;SDS011;58179;48.776;9.124;2023-03-21T14:49:25;3.57;;;1.67;;
55913;SDS011;58179;48.776;9.124;2023-03-21T14:51:53;2.65;;;1.50;;
55913;SDS011;58179;48.776;9.124;2023-03-21T14:54:21;3.53;;;1.73;;
55913;SDS011;58179;48.776;9.124;2023-03-21T14:56:48;3.60;;;1.83;;
55913;SDS011;58179;48.776;9.124;2023-03-21T14:59:18;3.05;;;1.95;;
55913;SDS011;58179;48.776;9.124;2023-03-21T15:01:47;3.57;;;1.70;;
55913;SDS011;58179;48.776;9.124;2023-03-21T15:04:16;4.00;;;2.00;;
55913;SDS011;58179;48.776;9.124;2023-03-21T15:06:50;3.40;;;2.22;;
55913;SDS011;58179;48.776;9.124;2023-03-21T15:09:20;3.90;;;2.60;;
55913;SDS011;58179;48.776;9.124;2023-03-21T15:11:51;6.55;;;3.40;;
55913;SDS011;58179;48.776;9.124;2023-03-21T15:14:20;6.70;;;3.08;;